createdAt,value
2023-02-17T00:02:22.949Z,1.30
2023-02-17T00:04:49.918Z,1.40
2023-02-17T00:07:16.852Z,1.30
2023-02-17T00:09:43.861Z,1.30
2023-02-17T00:12:10.945Z,1.30
2023-02-17T00:14:40.060Z,1.30
2023-02-17T00:17:07.479Z,1.30
2023-02-17T00:19:36.452Z,1.30
2023-02-17T00:22:08.221Z,1.20
2023-02-17T00:24:42.740Z,1.20
2023-02-17T00:27:14.198Z,1.20
2023-02-17T00:29:45.025Z,1.20
2023-02-17T00:32:14.436Z,1.20
2023-02-17T00:34:48.851Z,1.20
2023-02-17T00:37:22.146Z,1.20
2023-02-17T00:39:59.432Z,1.20
2023-02-17T00:42:34.881Z,1.20
2023-02-17T00:45:06.943Z,1.20
2023-02-17T00:47:38.395Z,1.20
2023-02-17T00:50:10.487Z,1.20
2023-02-17T00:52:45.292Z,1.30
2023-02-17T00:55:19.199Z,1.30
2023-02-17T00:57:51.221Z,1.30
2023-02-17T01:00:22.721Z,1.30
2023-02-17T01:02:52.957Z,1.30
2023-02-17T01:05:23.159Z,1.30
2023-02-17T01:07:56.765Z,1.30
2023-02-17T01:10:29.446Z,1.30
2023-02-17T01:13:01.428Z,1.30
2023-02-17T01:15:31.293Z,1.30
2023-02-17T01:18:01.140Z,1.30
2023-02-17T01:20:32.785Z,1.30
2023-02-17T01:23:04.243Z,1.30
2023-02-17T01:25:41.493Z,1.40
2023-02-17T01:28:17.276Z,1.40
2023-02-17T01:30:49.515Z,1.40
2023-02-17T01:33:19.261Z,1.40
2023-02-17T01:35:51.273Z,1.40
2023-02-17T01:38:24.005Z,1.40
2023-02-17T01:40:58.215Z,1.40
2023-02-17T01:43:31.419Z,1.50
2023-02-17T01:46:14.049Z,1.40
2023-02-17T01:48:53.470Z,1.40
2023-02-17T01:51:31.256Z,1.50
2023-02-17T01:54:04.344Z,1.50
2023-02-17T01:56:41.289Z,1.40
2023-02-17T01:59:24.185Z,1.40
2023-02-17T02:02:07.346Z,1.40
2023-02-17T02:04:42.713Z,1.40
2023-02-17T02:07:44.208Z,1.40
2023-02-17T02:10:18.504Z,1.50
2023-02-17T02:12:50.862Z,1.50
2023-02-17T02:15:25.081Z,1.50
2023-02-17T02:18:20.798Z,1.50
2023-02-17T02:21:08.534Z,1.50
2023-02-17T02:23:53.499Z,1.50
2023-02-17T02:27:01.110Z,1.50
2023-02-17T02:29:48.328Z,1.50
2023-02-17T02:32:42.385Z,1.50
2023-02-17T02:35:23.174Z,1.50
2023-02-17T02:38:03.017Z,1.50
2023-02-17T02:40:39.591Z,1.50
2023-02-17T02:43:12.269Z,1.50
2023-02-17T02:45:46.487Z,1.50
2023-02-17T02:48:18.648Z,1.50
2023-02-17T02:51:12.727Z,1.60
2023-02-17T02:54:03.055Z,1.60
2023-02-17T02:56:53.225Z,1.60
2023-02-17T03:00:06.645Z,1.60
2023-02-17T03:03:12.552Z,1.70
2023-02-17T03:06:01.398Z,1.60
2023-02-17T03:08:48.900Z,1.60
2023-02-17T03:11:36.338Z,1.60
2023-02-17T03:14:18.216Z,1.60
2023-02-17T03:16:53.359Z,1.60
2023-02-17T03:19:31.245Z,1.60
2023-02-17T03:22:23.595Z,1.60
2023-02-17T03:24:54.147Z,1.60
2023-02-17T03:27:24.963Z,1.60
2023-02-17T03:29:58.259Z,1.60
2023-02-17T03:32:31.227Z,1.60
2023-02-17T03:35:04.442Z,1.60
2023-02-17T03:37:36.297Z,1.60
2023-02-17T03:40:11.388Z,1.60
2023-02-17T03:42:45.047Z,1.60
2023-02-17T03:45:17.712Z,1.60
2023-02-17T03:47:51.016Z,1.70
2023-02-17T03:50:21.177Z,1.60
2023-02-17T03:52:50.840Z,1.70
2023-02-17T03:55:22.303Z,1.70
2023-02-17T03:57:52.339Z,1.70
2023-02-17T04:00:23.039Z,1.70
2023-02-17T04:02:55.100Z,1.60
2023-02-17T04:05:27.791Z,1.70
2023-02-17T04:07:58.926Z,1.70
2023-02-17T04:10:33.756Z,1.70
2023-02-17T04:13:06.755Z,1.70
2023-02-17T04:15:42.520Z,1.70
2023-02-17T04:18:13.943Z,1.80
2023-02-17T04:20:45.085Z,1.80
2023-02-17T04:23:20.548Z,1.80
2023-02-17T04:25:51.059Z,1.80
2023-02-17T04:28:21.216Z,1.70
2023-02-17T04:30:54.980Z,1.70
2023-02-17T04:33:26.350Z,1.70
2023-02-17T04:36:02.728Z,1.70
2023-02-17T04:38:35.077Z,1.70
2023-02-17T04:41:08.055Z,1.70
2023-02-17T04:43:42.886Z,1.70
2023-02-17T04:46:15.927Z,1.70
2023-02-17T04:48:47.016Z,1.70
2023-02-17T04:51:19.086Z,1.70
2023-02-17T04:53:54.529Z,1.70
2023-02-17T04:56:25.981Z,1.80
2023-02-17T04:58:58.053Z,1.80
2023-02-17T05:01:32.645Z,1.80
2023-02-17T05:04:04.335Z,1.80
2023-02-17T05:06:40.081Z,1.80
2023-02-17T05:09:13.075Z,1.80
2023-02-17T05:11:42.693Z,1.80
2023-02-17T05:14:16.580Z,1.80
2023-02-17T05:16:50.188Z,1.80
2023-02-17T05:19:24.407Z,1.80
2023-02-17T05:21:56.771Z,1.80
2023-02-17T05:24:33.750Z,1.80
2023-02-17T05:27:03.056Z,1.80
2023-02-17T05:29:34.198Z,1.80
2023-02-17T05:32:02.942Z,1.80
2023-02-17T05:34:34.947Z,1.90
2023-02-17T05:37:09.168Z,1.80
2023-02-17T05:39:39.089Z,1.80
2023-02-17T05:42:09.927Z,1.80
2023-02-17T05:44:43.825Z,1.90
2023-02-17T05:47:14.657Z,1.90
2023-02-17T05:49:48.576Z,1.90
2023-02-17T05:52:21.138Z,2.00
2023-02-17T05:54:50.547Z,2.00
2023-02-17T05:57:22.732Z,1.90
2023-02-17T05:59:53.766Z,2.00
2023-02-17T06:02:25.827Z,2.00
2023-02-17T06:04:56.818Z,2.00
2023-02-17T06:07:27.817Z,2.00
2023-02-17T06:10:02.648Z,2.00
2023-02-17T06:12:33.477Z,2.00
2023-02-17T06:15:04.006Z,2.00
2023-02-17T06:17:43.141Z,2.10
2023-02-17T06:20:15.206Z,2.00
2023-02-17T06:22:43.885Z,2.00
2023-02-17T06:25:15.033Z,2.10
2023-02-17T06:27:47.107Z,2.10
2023-02-17T06:30:18.940Z,2.10
2023-02-17T06:32:49.375Z,2.00
2023-02-17T06:35:20.214Z,2.10
2023-02-17T06:37:54.499Z,2.10
2023-02-17T06:40:28.538Z,2.10
2023-02-17T06:43:01.137Z,2.10
2023-02-17T06:45:30.435Z,2.10
2023-02-17T06:48:01.126Z,2.10
2023-02-17T06:50:30.485Z,2.10
2023-02-17T06:53:11.017Z,2.10
2023-02-17T06:55:44.112Z,2.10
2023-02-17T06:58:16.184Z,2.20
2023-02-17T07:00:51.174Z,2.20
2023-02-17T07:03:22.392Z,2.20
2023-02-17T07:05:54.524Z,2.20
2023-02-17T07:08:25.661Z,2.30
2023-02-17T07:11:00.191Z,2.40
2023-02-17T07:13:31.647Z,2.40
2023-02-17T07:16:03.127Z,2.40
2023-02-17T07:18:34.529Z,2.40
2023-02-17T07:21:07.246Z,2.40
2023-02-17T07:23:56.808Z,2.40
2023-02-17T07:26:29.182Z,2.50
2023-02-17T07:28:59.391Z,2.50
2023-02-17T07:31:33.983Z,2.50
2023-02-17T07:34:10.600Z,2.50
2023-02-17T07:36:43.272Z,2.40
2023-02-17T07:39:14.720Z,2.50
2023-02-17T07:41:47.400Z,2.50
2023-02-17T07:44:20.697Z,2.50
2023-02-17T07:46:49.384Z,2.50
2023-02-17T07:49:23.020Z,2.50
2023-02-17T07:51:53.513Z,2.60
2023-02-17T07:54:24.319Z,2.60
2023-02-17T07:56:57.950Z,2.60
2023-02-17T07:59:30.324Z,2.70
2023-02-17T08:02:03.417Z,2.60
2023-02-17T08:04:37.245Z,2.70
2023-02-17T08:07:10.512Z,2.70
2023-02-17T08:10:01.495Z,2.80
2023-02-17T08:12:50.274Z,2.80
2023-02-17T08:15:21.098Z,2.70
2023-02-17T08:17:56.864Z,2.70
2023-02-17T08:20:29.233Z,2.70
2023-02-17T08:23:01.605Z,2.70
2023-02-17T08:25:39.201Z,2.70
2023-02-17T08:28:11.234Z,2.70
2023-02-17T08:30:42.810Z,2.80
2023-02-17T08:33:13.406Z,2.80
2023-02-17T08:35:50.879Z,2.70
2023-02-17T08:38:23.834Z,2.70
2023-02-17T08:40:52.483Z,2.80
2023-02-17T08:43:25.822Z,2.80
2023-02-17T08:45:56.096Z,2.90
2023-02-17T08:48:26.873Z,2.90
2023-02-17T08:51:01.037Z,3.00
2023-02-17T08:53:33.154Z,3.00
2023-02-17T08:56:03.828Z,3.10
2023-02-17T08:58:38.204Z,3.20
2023-02-17T09:01:11.104Z,3.20
2023-02-17T09:03:43.593Z,3.20
2023-02-17T09:06:16.603Z,3.20
2023-02-17T09:08:51.358Z,3.20
2023-02-17T09:11:28.737Z,3.30
2023-02-17T09:14:01.648Z,3.30
2023-02-17T09:16:32.489Z,3.30
2023-02-17T09:19:04.865Z,3.30
2023-02-17T09:21:51.326Z,3.30
2023-02-17T09:24:21.115Z,3.30
2023-02-17T09:26:52.487Z,3.40
2023-02-17T09:29:24.803Z,3.40
2023-02-17T09:32:01.271Z,3.40
2023-02-17T09:34:32.950Z,3.40
2023-02-17T09:37:04.382Z,3.40
2023-02-17T09:39:34.295Z,3.50
2023-02-17T09:42:04.221Z,3.50
2023-02-17T09:45:10.280Z,3.50
2023-02-17T09:47:49.192Z,3.60
2023-02-17T09:50:23.489Z,3.60
2023-02-17T09:53:41.049Z,3.60
2023-02-17T09:56:19.595Z,3.60
2023-02-17T09:59:06.899Z,3.60
2023-02-17T10:01:42.699Z,3.50
2023-02-17T10:04:22.326Z,3.50
2023-02-17T10:07:21.094Z,3.50
2023-02-17T10:10:07.415Z,3.50
2023-02-17T10:12:48.348Z,3.50
2023-02-17T10:15:30.982Z,3.60
2023-02-17T10:18:12.437Z,3.60
2023-02-17T10:21:01.125Z,3.70
2023-02-17T10:23:33.775Z,3.70
2023-02-17T10:26:18.733Z,3.70
2023-02-17T10:29:30.964Z,3.70
2023-02-17T10:32:26.881Z,3.60
2023-02-17T10:35:15.774Z,3.70
2023-02-17T10:37:53.022Z,3.70
2023-02-17T10:40:26.922Z,3.70
2023-02-17T10:43:11.609Z,3.70
2023-02-17T10:45:48.564Z,3.80
2023-02-17T10:48:27.088Z,3.80
2023-02-17T10:51:02.222Z,3.80
2023-02-17T10:53:42.583Z,3.80
2023-02-17T10:56:40.950Z,3.80
2023-02-17T10:59:22.208Z,3.80
2023-02-17T11:01:53.492Z,3.90
2023-02-17T11:04:27.456Z,3.90
2023-02-17T11:07:03.771Z,4.00
2023-02-17T11:09:36.448Z,4.00
2023-02-17T11:12:18.962Z,4.10
2023-02-17T11:14:53.485Z,4.10
2023-02-17T11:20:19.235Z,4.10
2023-02-17T11:23:07.484Z,4.10
2023-02-17T11:25:42.599Z,4.10
2023-02-17T11:28:28.566Z,4.10
2023-02-17T11:31:06.485Z,4.10
2023-02-17T11:33:43.374Z,4.00
2023-02-17T11:36:36.021Z,4.00
2023-02-17T11:39:24.987Z,4.00
2023-02-17T11:41:57.363Z,3.80
2023-02-17T11:44:31.580Z,3.80
2023-02-17T11:47:22.683Z,3.80
2023-02-17T11:50:08.575Z,3.80
2023-02-17T11:53:20.994Z,3.90
2023-02-17T11:55:59.731Z,3.90
2023-02-17T11:59:03.414Z,3.90
2023-02-17T12:02:10.931Z,3.90
2023-02-17T12:05:29.254Z,4.00
2023-02-17T12:08:20.681Z,3.90
2023-02-17T12:10:56.739Z,3.90
2023-02-17T12:13:53.372Z,3.90
2023-02-17T12:16:59.236Z,3.90
2023-02-17T12:19:40.933Z,3.90
2023-02-17T12:22:30.128Z,3.90
2023-02-17T12:25:16.598Z,3.90
2023-02-17T12:27:48.968Z,3.90
2023-02-17T12:30:32.774Z,3.90
2023-02-17T12:33:18.908Z,3.90
2023-02-17T12:35:55.579Z,3.80
2023-02-17T12:38:34.071Z,3.80
2023-02-17T12:41:22.137Z,3.80
2023-02-17T12:44:11.105Z,3.80
2023-02-17T12:46:58.212Z,3.70
2023-02-17T12:49:57.321Z,3.70
2023-02-17T12:52:33.293Z,3.70
2023-02-17T12:55:29.400Z,3.60
2023-02-17T12:58:22.959Z,3.60
2023-02-17T13:01:13.499Z,3.60
2023-02-17T13:03:53.215Z,3.50
2023-02-17T13:06:47.706Z,3.50
2023-02-17T13:09:46.499Z,3.50
2023-02-17T13:12:21.294Z,3.50
2023-02-17T13:15:02.305Z,3.50
2023-02-17T13:17:43.283Z,3.50
2023-02-17T13:20:31.009Z,3.40
2023-02-17T13:23:31.025Z,3.40
2023-02-17T13:26:27.376Z,3.40
2023-02-17T13:29:19.097Z,3.30
2023-02-17T13:32:05.491Z,3.30
2023-02-17T13:34:39.487Z,3.30
2023-02-17T13:37:40.761Z,3.30
2023-02-17T13:40:21.102Z,3.20
2023-02-17T13:42:52.870Z,3.20
2023-02-17T13:45:48.605Z,3.20
2023-02-17T14:49:12.385Z,3.10
2023-02-17T14:51:46.897Z,3.10
2023-02-17T14:54:20.889Z,3.10
2023-02-17T14:57:12.835Z,3.10
2023-02-17T14:59:42.757Z,3.10
2023-02-17T15:02:26.492Z,3.00
2023-02-17T15:04:58.286Z,3.00
2023-02-17T15:07:34.016Z,3.00
2023-02-17T15:10:08.832Z,3.00
2023-02-17T15:12:40.880Z,3.00
2023-02-17T15:15:21.190Z,2.90
2023-02-17T15:17:53.325Z,2.90
2023-02-17T15:20:24.159Z,2.90
2023-02-17T15:22:57.454Z,2.90
2023-02-17T15:25:28.285Z,2.90
2023-02-17T15:27:58.516Z,2.80
2023-02-17T15:30:31.834Z,2.80
2023-02-17T15:33:05.332Z,2.80
2023-02-17T15:35:37.785Z,2.80
2023-02-17T15:38:13.531Z,2.70
2023-02-17T15:40:44.680Z,2.70
2023-02-17T15:43:22.609Z,2.70
2023-02-17T15:45:53.115Z,2.70
2023-02-17T15:48:30.711Z,2.70
2023-02-17T15:51:03.081Z,2.70
2023-02-17T15:53:40.362Z,2.70
2023-02-17T15:56:24.094Z,2.60
2023-02-17T15:58:54.005Z,2.70
2023-02-17T16:01:39.900Z,2.70
2023-02-17T16:04:21.485Z,2.70
2023-02-17T16:06:52.632Z,2.70
2023-02-17T16:09:25.928Z,2.70
2023-02-17T16:12:01.323Z,2.70
2023-02-17T16:14:40.817Z,2.60
2023-02-17T16:17:18.579Z,2.60
2023-02-17T16:19:52.622Z,2.60
2023-02-17T16:22:25.004Z,2.60
2023-02-17T16:24:54.239Z,2.60
2023-02-17T16:27:30.056Z,2.60
2023-02-17T16:30:03.529Z,2.60
2023-02-17T16:32:36.644Z,2.60
2023-02-17T16:35:10.550Z,2.70
2023-02-17T16:37:40.961Z,2.70
2023-02-17T16:40:32.498Z,2.70
2023-02-17T16:43:03.633Z,2.70
2023-02-17T16:45:42.878Z,2.70
2023-02-17T17:49:55.102Z,2.70
2023-02-17T17:52:29.612Z,2.70
2023-02-17T17:55:00.663Z,2.70
2023-02-17T17:57:30.940Z,2.70
2023-02-17T18:00:04.887Z,2.70
2023-02-17T18:02:37.570Z,2.70
2023-02-17T18:05:09.327Z,2.70
2023-02-17T18:07:40.936Z,2.80
2023-02-17T18:10:14.990Z,2.70
2023-02-17T18:12:47.371Z,2.70
2023-02-17T18:15:20.662Z,2.70
2023-02-17T18:17:52.728Z,2.70
2023-02-17T18:20:22.613Z,2.70
2023-02-17T18:22:52.559Z,2.80
2023-02-17T18:25:24.039Z,2.80
2023-02-17T18:28:00.053Z,2.70
2023-02-17T18:30:32.459Z,2.80
2023-02-17T18:33:02.513Z,2.80
2023-02-17T18:35:32.568Z,2.70
2023-02-17T18:38:03.676Z,2.80
2023-02-17T18:40:35.147Z,2.80
2023-02-17T18:43:04.403Z,2.80
2023-02-17T18:46:00.898Z,2.80
2023-02-17T18:48:32.556Z,2.70
2023-02-17T18:51:13.529Z,2.80
2023-02-17T18:53:46.826Z,2.80
2023-02-17T18:56:29.337Z,2.70
2023-02-17T18:59:03.342Z,2.70
2023-02-17T19:01:39.408Z,2.70
2023-02-17T19:04:14.748Z,2.70
2023-02-17T19:06:45.277Z,2.70
2023-02-17T19:09:13.954Z,2.60
2023-02-17T19:11:43.384Z,2.60
2023-02-17T19:14:16.557Z,2.60
2023-02-17T19:16:47.690Z,2.60
2023-02-17T19:19:18.842Z,2.60
2023-02-17T19:21:52.746Z,2.60
2023-02-17T19:24:26.043Z,2.50
2023-02-17T19:26:57.184Z,2.50
2023-02-17T19:29:30.176Z,2.50
2023-02-17T19:32:07.520Z,2.50
2023-02-17T19:34:42.600Z,2.50
2023-02-17T19:37:14.977Z,2.50
2023-02-17T19:39:47.654Z,2.50
2023-02-17T19:42:23.091Z,2.50
2023-02-17T19:44:53.014Z,2.50
2023-02-17T19:47:22.930Z,2.40
2023-02-17T19:49:54.074Z,2.40
2023-02-17T19:52:25.521Z,2.40
2023-02-17T19:54:59.900Z,2.40
2023-02-17T19:57:33.347Z,2.40
2023-02-17T20:00:05.408Z,2.30
2023-02-17T20:02:43.973Z,2.30
2023-02-17T20:05:14.451Z,2.20
2023-02-17T20:07:49.286Z,2.20
2023-02-17T20:10:22.275Z,2.20
2023-02-17T20:12:52.497Z,2.20
2023-02-17T20:15:25.580Z,2.10
2023-02-17T20:17:56.620Z,2.10
2023-02-17T20:20:25.624Z,2.10
2023-02-17T20:22:59.529Z,2.10
2023-02-17T20:25:30.056Z,2.10
2023-02-17T20:28:03.041Z,2.00
2023-02-17T20:30:33.872Z,2.00
2023-02-17T20:33:06.564Z,2.00
2023-02-17T20:35:39.544Z,2.00
2023-02-17T20:38:12.224Z,2.00
2023-02-17T20:40:42.445Z,1.90
2023-02-17T20:43:13.798Z,1.90
2023-02-17T20:45:47.808Z,1.90
2023-02-17T20:48:21.098Z,1.90
2023-02-17T20:50:53.268Z,1.90
2023-02-17T20:53:24.009Z,1.90
2023-02-17T20:55:55.768Z,1.90
2023-02-17T20:58:28.462Z,1.90
2023-02-17T21:01:00.257Z,1.80
2023-02-17T21:03:32.470Z,1.80
2023-02-17T21:06:10.286Z,1.80
2023-02-17T21:08:43.157Z,1.80
2023-02-17T21:11:15.110Z,1.80
2023-02-17T21:13:44.496Z,1.80
2023-02-17T21:16:23.111Z,1.80
2023-02-17T21:18:55.735Z,1.80
2023-02-17T21:21:28.822Z,1.80
2023-02-17T21:24:02.003Z,1.80
2023-02-17T21:26:36.221Z,1.80
2023-02-17T21:29:13.501Z,1.80
2023-02-17T21:31:43.210Z,1.80
2023-02-17T21:34:14.900Z,1.80
2023-02-17T21:36:47.242Z,1.80
2023-02-17T21:39:17.157Z,1.90
2023-02-17T21:41:47.065Z,1.80
2023-02-17T21:44:36.657Z,1.80
2023-02-17T21:47:07.490Z,1.90
2023-02-17T21:49:39.546Z,1.90
2023-02-17T21:52:13.459Z,1.90
2023-02-17T21:54:46.139Z,1.90
2023-02-17T21:57:16.684Z,2.00
2023-02-17T21:59:48.110Z,2.00
2023-02-17T22:02:17.722Z,2.00
2023-02-17T22:04:50.883Z,2.10
2023-02-17T22:07:20.760Z,2.00
2023-02-17T22:09:52.688Z,2.00
2023-02-17T22:12:24.443Z,2.10
2023-02-17T22:14:55.254Z,2.00
2023-02-17T22:17:26.136Z,2.00
2023-02-17T22:20:00.882Z,2.00
2023-02-17T22:22:34.544Z,2.00
2023-02-17T22:25:05.085Z,2.10
2023-02-17T22:27:35.271Z,2.10
2023-02-17T22:30:10.886Z,2.20
2023-02-17T22:32:46.813Z,2.20
2023-02-17T22:35:22.007Z,2.30
2023-02-17T22:37:53.400Z,2.30
2023-02-17T22:40:26.076Z,2.20
2023-02-17T22:42:57.834Z,2.30
2023-02-17T22:45:27.131Z,2.30
2023-02-17T22:48:00.904Z,2.30
2023-02-17T22:50:32.497Z,2.30
2023-02-17T22:53:04.866Z,2.40
2023-02-17T22:55:40.005Z,2.40
2023-02-17T22:58:11.058Z,2.40
2023-02-17T23:00:48.428Z,2.40
2023-02-17T23:03:22.968Z,2.50
2023-02-17T23:05:52.868Z,2.50
2023-02-17T23:08:22.794Z,2.60
2023-02-17T23:10:52.700Z,2.60
2023-02-17T23:13:23.848Z,2.60
2023-02-17T23:15:55.918Z,2.70
2023-02-17T23:18:30.906Z,2.70
2023-02-17T23:21:02.498Z,2.80
2023-02-17T23:23:32.722Z,2.80
2023-02-17T23:26:03.579Z,2.90
2023-02-17T23:28:36.241Z,2.90
2023-02-17T23:31:08.090Z,2.90
2023-02-17T23:33:42.529Z,2.90
2023-02-17T23:36:12.437Z,3.00
2023-02-17T23:38:46.352Z,3.00
2023-02-17T23:41:20.855Z,3.00
2023-02-17T23:43:52.008Z,3.10
2023-02-17T23:46:22.511Z,3.10
2023-02-17T23:48:52.463Z,3.10
2023-02-17T23:51:23.907Z,3.20
2023-02-17T23:53:57.200Z,3.20
2023-02-17T23:56:38.507Z,3.20
2023-02-17T23:59:14.536Z,3.20
